This is the latest recevied weather packets stored in our database for station/object OE3UKW. If no packets are shown the sender has not sent any weather packets the latest 10 day(s).
| Time | Temp. | Humidity | Pressure | Rain* | Wind** | Luminosity | Snow |
|---|---|---|---|---|---|---|---|
| 1777042869 | 22.78° C | 16% | 1015.4 hPa | 0 mm | - | 432 W/m² | - |
| 1777042269 | 22.78° C | 16% | 1015.3 hPa | 0 mm | - | 460 W/m² | - |
| 1777041669 | 22.78° C | 15% | 1015.4 hPa | 0 mm | - | 484 W/m² | - |
| 1777041069 | 22.78° C | 15% | 1015.4 hPa | 0 mm | - | 516 W/m² | - |
| 1777040469 | 22.78° C | 15% | 1015.4 hPa | 0 mm | - | 542 W/m² | - |
| 1777039869 | 22.78° C | 17% | 1015.5 hPa | 0 mm | - | 571 W/m² | - |
| 1777039269 | 22.78° C | 17% | 1015.5 hPa | 0 mm | - | 590 W/m² | - |
| 1777038669 | 22.78° C | 18% | 1015.6 hPa | 0 mm | - | 610 W/m² | - |
| 1777038069 | 22.78° C | 17% | 1015.5 hPa | 0 mm | - | 634 W/m² | - |
| 1777037469 | 22.78° C | 18% | 1015.6 hPa | 0 mm | - | 656 W/m² | - |
| 1777036869 | 12.22° C | 28% | 1019.6 hPa | 0 mm | - | 0 W/m² | - |
| 1777036269 | 22.78° C | 16% | 1015.7 hPa | 0 mm | - | 689 W/m² | - |
| 1777035669 | 22.22° C | 22% | 1015.7 hPa | 0 mm | - | 712 W/m² | - |
| 1777035069 | 22.22° C | 22% | 1015.8 hPa | 0 mm | - | 723 W/m² | - |
| 1777034469 | 22.22° C | 22% | 1015.9 hPa | 0 mm | - | 744 W/m² | - |
| 1777033869 | 22.22° C | 25% | 1016.1 hPa | 0 mm | - | 753 W/m² | - |
| 1777033269 | 21.67° C | 21% | 1016.4 hPa | 0 mm | - | 766 W/m² | - |
| 1777032669 | 21.67° C | 20% | 1016.5 hPa | 0 mm | - | 776 W/m² | - |
| 1777032069 | 21.11° C | 22% | 1016.7 hPa | 0 mm | - | 792 W/m² | - |
| 1777031469 | 21.11° C | 23% | 1016.9 hPa | 0 mm | - | 796 W/m² | - |
| 1777030869 | 21.11° C | 24% | 1017 hPa | 0 mm | - | 798 W/m² | - |
| 1777030269 | 20.56° C | 23% | 1017.1 hPa | 0 mm | - | 811 W/m² | - |
| 1777029669 | 20.56° C | 23% | 1017.1 hPa | 0 mm | - | 811 W/m² | - |
| 1777029069 | 20.56° C | 24% | 1017.3 hPa | 0 mm | - | 816 W/m² | - |
| 1777028469 | 20.56° C | 25% | 1017.4 hPa | 0 mm | - | 809 W/m² | - |
* Rain latest hour (hover to see other rain measurements)
** Current wind speed in m/s (hover to see current wind gust speed)